createdAt,value
2022-11-18T00:00:45.275Z,90.83
2022-11-18T00:03:17.527Z,91.08
2022-11-18T00:05:56.559Z,90.92
2022-11-18T00:08:28.729Z,90.72
2022-11-18T00:11:05.768Z,90.74
2022-11-18T00:13:55.790Z,90.86
2022-11-18T00:16:27.577Z,91.03
2022-11-18T00:18:59.336Z,91.47
2022-11-18T00:21:31.126Z,91.67
2022-11-18T00:24:03.620Z,91.55
2022-11-18T00:26:36.262Z,91.53
2022-11-18T00:29:09.998Z,91.41
2022-11-18T00:31:42.026Z,91.25
2022-11-18T00:34:17.618Z,91.15
2022-11-18T00:36:50.422Z,91.27
2022-11-18T00:39:22.980Z,91.35
2022-11-18T00:42:12.142Z,91.39
2022-11-18T00:44:43.881Z,91.22
2022-11-18T00:47:16.082Z,91.07
2022-11-18T00:49:47.812Z,90.81
2022-11-18T00:52:19.607Z,90.79
2022-11-18T00:54:51.615Z,90.98
2022-11-18T00:57:23.393Z,90.94
2022-11-18T00:59:55.469Z,90.96
2022-11-18T01:02:27.459Z,91.12
2022-11-18T01:04:59.212Z,90.99
2022-11-18T01:07:30.960Z,90.85
2022-11-18T01:10:02.869Z,90.66
2022-11-18T01:12:54.386Z,90.64
2022-11-18T01:15:26.639Z,90.50
2022-11-18T01:17:58.367Z,90.65
2022-11-18T01:20:30.280Z,90.93
2022-11-18T01:23:02.069Z,91.03
2022-11-18T01:25:34.032Z,91.01
2022-11-18T01:28:05.908Z,90.95
2022-11-18T01:30:39.420Z,90.96
2022-11-18T01:33:11.565Z,90.95
2022-11-18T01:35:45.157Z,90.93
2022-11-18T01:38:17.361Z,90.87
2022-11-18T01:40:49.152Z,90.71
2022-11-18T01:43:22.600Z,90.61
2022-11-18T01:45:55.431Z,90.50
2022-11-18T01:48:30.825Z,90.68
2022-11-18T01:51:07.302Z,90.69
2022-11-18T01:53:42.836Z,90.71
2022-11-18T01:56:18.587Z,90.62
2022-11-18T01:58:55.323Z,90.61
2022-11-18T02:01:27.166Z,90.83
2022-11-18T02:03:59.361Z,90.54
2022-11-18T02:06:31.333Z,90.60
2022-11-18T02:09:03.901Z,90.48
2022-11-18T02:11:54.983Z,90.40
2022-11-18T02:14:29.224Z,90.77
2022-11-18T02:17:13.998Z,90.99
2022-11-18T02:20:08.107Z,90.74
2022-11-18T02:23:00.972Z,90.56
2022-11-18T02:25:46.074Z,90.61
2022-11-18T02:28:37.064Z,91.02
2022-11-18T02:31:15.930Z,91.13
2022-11-18T02:33:52.880Z,91.08
2022-11-18T02:36:29.547Z,91.20
2022-11-18T02:39:06.554Z,91.05
2022-11-18T02:41:40.913Z,90.85
2022-11-18T02:44:16.562Z,90.87
2022-11-18T02:46:52.677Z,90.81
2022-11-18T02:49:28.962Z,90.99
2022-11-18T02:52:02.337Z,91.03
2022-11-18T02:54:37.510Z,91.16
2022-11-18T02:57:10.379Z,91.13
2022-11-18T02:59:42.395Z,91.24
2022-11-18T03:02:19.091Z,90.79
2022-11-18T03:04:54.394Z,90.58
2022-11-18T03:07:30.725Z,90.82
2022-11-18T03:10:03.871Z,90.71
2022-11-18T03:12:44.301Z,90.68
2022-11-18T03:15:27.587Z,90.55
2022-11-18T03:18:08.686Z,90.42
2022-11-18T03:20:46.342Z,90.59
2022-11-18T03:23:26.759Z,90.54
2022-11-18T03:26:03.123Z,90.36
2022-11-18T03:28:42.549Z,90.60
2022-11-18T03:31:21.666Z,90.74
2022-11-18T03:33:58.953Z,90.53
2022-11-18T03:36:35.077Z,90.75
2022-11-18T03:39:08.950Z,90.80
2022-11-18T03:41:45.821Z,90.49
2022-11-18T03:44:25.598Z,90.52
2022-11-18T03:47:01.414Z,90.85
2022-11-18T03:49:37.145Z,90.94
2022-11-18T03:52:14.192Z,91.23
2022-11-18T03:54:49.460Z,91.29
2022-11-18T03:57:26.894Z,91.19
2022-11-18T04:00:07.460Z,91.03
2022-11-18T04:02:40.274Z,91.01
2022-11-18T04:05:16.001Z,91.09
2022-11-18T04:07:57.346Z,91.16
2022-11-18T04:10:34.780Z,91.09
2022-11-18T04:13:09.935Z,90.76
2022-11-18T04:15:43.494Z,90.48
2022-11-18T04:18:15.347Z,90.26
2022-11-18T04:20:47.179Z,90.17
2022-11-18T04:23:18.972Z,90.42
2022-11-18T04:25:50.791Z,90.70
2022-11-18T04:28:22.499Z,90.88
2022-11-18T04:30:55.026Z,90.82
2022-11-18T04:33:26.712Z,91.15
2022-11-18T04:35:58.485Z,91.06
2022-11-18T04:38:30.205Z,91.19
2022-11-18T04:41:01.897Z,91.24
2022-11-18T04:43:35.270Z,90.61
2022-11-18T04:46:07.181Z,90.49
2022-11-18T04:48:38.932Z,90.94
2022-11-18T04:51:10.725Z,90.79
2022-11-18T04:53:42.442Z,90.36
2022-11-18T04:56:14.269Z,90.39
2022-11-18T04:58:46.138Z,90.33
2022-11-18T05:01:18.145Z,90.32
2022-11-18T05:03:50.825Z,90.31
2022-11-18T05:06:23.246Z,90.66
2022-11-18T05:08:55.243Z,90.65
2022-11-18T05:11:45.255Z,90.75
2022-11-18T05:14:17.254Z,90.81
2022-11-18T05:16:49.349Z,90.78
2022-11-18T05:19:21.372Z,90.57
2022-11-18T05:21:55.935Z,90.64
2022-11-18T05:24:28.215Z,90.64
2022-11-18T05:27:00.093Z,90.52
2022-11-18T05:29:31.858Z,90.69
2022-11-18T05:32:03.766Z,90.49
2022-11-18T05:34:35.687Z,90.37
2022-11-18T05:37:07.416Z,90.39
2022-11-18T05:39:39.407Z,90.65
2022-11-18T05:42:29.907Z,91.03
2022-11-18T05:45:01.928Z,90.94
2022-11-18T05:47:53.871Z,90.93
2022-11-18T05:50:26.393Z,91.05
2022-11-18T05:52:58.367Z,91.15
2022-11-18T05:55:34.753Z,91.34
2022-11-18T05:58:06.999Z,91.52
2022-11-18T06:00:38.929Z,91.40
2022-11-18T06:03:18.760Z,91.18
2022-11-18T06:05:51.178Z,91.21
2022-11-18T06:08:25.076Z,90.94
2022-11-18T06:10:57.341Z,91.04
2022-11-18T06:13:35.450Z,91.14
2022-11-18T06:16:08.087Z,90.82
2022-11-18T06:18:39.944Z,91.03
2022-11-18T06:21:11.846Z,91.10
2022-11-18T06:23:44.499Z,90.88
2022-11-18T06:26:18.284Z,91.16
2022-11-18T06:28:51.536Z,90.70
2022-11-18T06:31:23.471Z,90.65
2022-11-18T06:33:55.391Z,90.70
2022-11-18T06:36:27.297Z,90.58
2022-11-18T06:39:03.085Z,90.26
2022-11-18T06:41:35.435Z,90.29
2022-11-18T06:44:07.496Z,90.10
2022-11-18T06:46:57.994Z,90.03
2022-11-18T06:49:30.234Z,90.24
2022-11-18T06:52:02.076Z,90.42
2022-11-18T06:54:34.066Z,90.57
2022-11-18T06:57:05.957Z,90.67
2022-11-18T06:59:38.092Z,90.68
2022-11-18T07:02:10.015Z,90.47
2022-11-18T07:04:41.938Z,90.42
2022-11-18T07:07:13.962Z,90.46
2022-11-18T07:09:45.756Z,90.04
2022-11-18T07:12:17.828Z,89.93
2022-11-18T07:14:49.732Z,89.92
2022-11-18T07:17:22.019Z,89.71
2022-11-18T07:19:53.910Z,89.66
2022-11-18T07:22:26.113Z,89.71
2022-11-18T07:24:58.054Z,89.34
2022-11-18T07:27:29.818Z,89.25
2022-11-18T07:30:01.750Z,88.97
2022-11-18T07:32:35.213Z,88.74
2022-11-18T07:35:09.781Z,88.84
2022-11-18T07:37:41.547Z,89.07
2022-11-18T07:40:13.902Z,88.95
2022-11-18T07:42:45.638Z,89.19
2022-11-18T07:45:29.770Z,89.25
2022-11-18T07:48:01.512Z,89.22
2022-11-18T07:50:33.437Z,88.95
2022-11-18T07:53:05.173Z,89.03
2022-11-18T07:55:39.216Z,89.00
2022-11-18T07:58:11.332Z,89.13
2022-11-18T08:00:45.712Z,88.85
2022-11-18T08:03:17.858Z,88.79
2022-11-18T08:05:49.720Z,88.69
2022-11-18T08:08:21.610Z,88.00
2022-11-18T08:10:56.223Z,88.18
2022-11-18T08:13:29.514Z,88.16
2022-11-18T08:16:01.851Z,88.57
2022-11-18T08:18:35.253Z,88.48
2022-11-18T08:21:07.942Z,88.59
2022-11-18T08:23:42.160Z,88.70
2022-11-18T08:26:15.879Z,88.67
2022-11-18T08:28:48.175Z,88.47
2022-11-18T08:31:22.151Z,88.58
2022-11-18T08:33:57.513Z,88.46
2022-11-18T08:36:31.253Z,88.16
2022-11-18T08:39:05.575Z,88.03
2022-11-18T08:41:39.836Z,87.89
2022-11-18T08:44:15.187Z,88.08
2022-11-18T08:46:47.132Z,88.20
2022-11-18T08:49:19.141Z,88.05
2022-11-18T08:51:51.190Z,88.32
2022-11-18T08:54:23.295Z,88.45
2022-11-18T08:56:55.854Z,88.27
2022-11-18T08:59:27.805Z,87.78
2022-11-18T09:01:59.750Z,87.93
2022-11-18T09:04:31.861Z,87.50
2022-11-18T09:07:04.567Z,87.02
2022-11-18T09:09:37.632Z,87.00
2022-11-18T09:12:14.665Z,87.20
2022-11-18T09:15:12.939Z,87.30
2022-11-18T09:17:39.595Z,87.46
2022-11-18T09:20:21.813Z,87.54
2022-11-18T09:22:53.674Z,87.53
2022-11-18T09:25:25.561Z,87.56
2022-11-18T09:27:57.604Z,87.56
2022-11-18T09:30:29.520Z,87.13
2022-11-18T09:33:02.271Z,87.42
2022-11-18T09:35:34.521Z,87.53
2022-11-18T09:38:06.917Z,87.53
2022-11-18T09:40:45.634Z,87.48
2022-11-18T09:43:26.497Z,87.44
2022-11-18T09:46:04.756Z,87.45
2022-11-18T09:49:01.859Z,87.41
2022-11-18T09:51:42.520Z,87.38
2022-11-18T09:54:21.261Z,87.30
2022-11-18T09:56:56.470Z,87.33
2022-11-18T09:59:32.542Z,87.33
2022-11-18T10:02:23.608Z,87.07
2022-11-18T10:04:57.412Z,86.97
2022-11-18T10:07:38.181Z,87.03
2022-11-18T10:10:17.964Z,87.23
2022-11-18T10:12:56.670Z,87.23
2022-11-18T10:15:35.032Z,87.41
2022-11-18T10:18:45.134Z,87.52
2022-11-18T10:21:25.515Z,87.41
2022-11-18T10:24:01.442Z,87.50
2022-11-18T10:26:42.234Z,88.12
2022-11-18T10:29:14.067Z,87.82
2022-11-18T10:32:04.313Z,87.51
2022-11-18T10:34:47.340Z,87.29
2022-11-18T10:37:45.820Z,87.09
2022-11-18T10:40:29.403Z,87.37
2022-11-18T10:43:01.491Z,87.63
2022-11-18T10:45:34.230Z,87.97
2022-11-18T10:48:11.107Z,88.11
2022-11-18T10:50:46.438Z,88.09
2022-11-18T10:53:36.071Z,87.98
2022-11-18T10:56:10.068Z,87.98
2022-11-18T10:58:46.685Z,88.10
2022-11-18T11:01:24.476Z,88.26
2022-11-18T11:04:03.475Z,88.13
2022-11-18T11:06:39.206Z,88.16
2022-11-18T11:09:29.963Z,88.32
2022-11-18T11:12:05.551Z,88.33
2022-11-18T11:14:44.723Z,88.17
2022-11-18T11:17:20.043Z,88.30
2022-11-18T11:20:00.369Z,88.39
2022-11-18T11:22:32.545Z,88.41
2022-11-18T11:25:07.346Z,88.41
2022-11-18T11:30:47.391Z,88.60
2022-11-18T11:33:38.141Z,88.86
2022-11-18T11:36:28.935Z,88.52
2022-11-18T11:39:08.118Z,88.54
2022-11-18T11:41:50.449Z,88.33
2022-11-18T11:44:40.132Z,87.76
2022-11-18T11:47:41.562Z,87.81
2022-11-18T11:50:19.793Z,87.49
2022-11-18T11:53:13.697Z,87.74
2022-11-18T11:56:00.478Z,88.24
2022-11-18T11:58:48.699Z,88.45
2022-11-18T12:01:28.177Z,87.71
2022-11-18T12:04:11.208Z,87.79
2022-11-18T12:06:47.831Z,87.86
2022-11-18T12:09:29.252Z,87.76
2022-11-18T12:12:28.944Z,87.83
2022-11-18T12:15:05.902Z,87.65
2022-11-18T12:17:49.783Z,87.64
2022-11-18T12:20:44.902Z,87.74
2022-11-18T12:23:20.935Z,87.58
2022-11-18T12:26:02.191Z,87.44
2022-11-18T12:28:37.283Z,87.67
2022-11-18T12:31:34.898Z,87.10
2022-11-18T12:34:21.680Z,87.30
2022-11-18T12:36:54.436Z,87.15
2022-11-18T12:39:51.256Z,87.02
2022-11-18T12:43:01.850Z,87.13
2022-11-18T12:46:00.405Z,87.14
2022-11-18T12:48:35.909Z,87.18
2022-11-18T12:51:44.543Z,87.15
2022-11-18T12:54:35.008Z,87.15
2022-11-18T12:57:19.806Z,86.81
2022-11-18T12:59:52.367Z,86.92
2022-11-18T13:02:26.867Z,87.01
2022-11-18T13:05:10.472Z,86.72
2022-11-18T13:08:06.214Z,86.97
2022-11-18T13:10:45.288Z,87.40
2022-11-18T13:13:24.229Z,87.53
2022-11-18T13:16:14.603Z,87.14
2022-11-18T13:18:54.885Z,86.92
2022-11-18T13:21:46.415Z,86.98
2022-11-18T13:24:20.435Z,87.10
2022-11-18T13:26:57.709Z,87.10
2022-11-18T13:29:42.309Z,87.08
2022-11-18T13:32:22.783Z,87.15
2022-11-18T13:34:56.826Z,87.17
2022-11-18T13:37:30.458Z,87.46
2022-11-18T13:40:02.430Z,87.64
2022-11-18T13:42:34.455Z,87.76
2022-11-18T13:45:07.425Z,87.74
2022-11-18T13:47:44.750Z,87.53
2022-11-18T13:50:22.742Z,87.56
2022-11-18T13:53:04.493Z,87.23
2022-11-18T13:55:41.266Z,87.24
2022-11-18T13:58:40.097Z,86.82
2022-11-18T14:01:23.833Z,87.01
2022-11-18T14:03:58.729Z,87.21
2022-11-18T14:06:33.390Z,87.54
2022-11-18T14:09:18.192Z,87.25
2022-11-18T14:12:02.408Z,87.15
2022-11-18T14:14:36.472Z,87.18
2022-11-18T14:17:19.330Z,87.23
2022-11-18T14:19:53.680Z,86.83
2022-11-18T14:22:27.310Z,86.91
2022-11-18T14:25:01.681Z,87.08
2022-11-18T14:27:43.034Z,86.82
2022-11-18T14:30:33.525Z,86.79
2022-11-18T14:33:21.141Z,86.56
2022-11-18T14:35:56.648Z,86.98
2022-11-18T14:38:51.963Z,87.20
2022-11-18T14:41:42.596Z,87.51
2022-11-18T14:44:17.222Z,87.80
2022-11-18T14:46:52.352Z,88.05
2022-11-18T14:49:25.539Z,88.23
2022-11-18T14:51:57.563Z,87.98
2022-11-18T14:54:29.921Z,88.27
2022-11-18T14:57:04.234Z,88.33
2022-11-18T14:59:36.083Z,88.47
2022-11-18T15:02:11.834Z,88.78
2022-11-18T15:04:43.805Z,89.04
2022-11-18T15:07:23.543Z,89.23
2022-11-18T15:09:55.922Z,89.41
2022-11-18T15:12:27.723Z,89.59
2022-11-18T15:14:59.433Z,89.62
2022-11-18T15:17:31.489Z,89.71
2022-11-18T15:20:04.453Z,89.72
2022-11-18T15:22:36.270Z,89.80
2022-11-18T15:25:09.743Z,89.63
2022-11-18T15:27:41.703Z,89.58
2022-11-18T15:30:15.980Z,89.63
2022-11-18T15:32:47.704Z,89.76
2022-11-18T15:35:19.745Z,89.81
2022-11-18T15:37:51.629Z,89.77
2022-11-18T15:40:23.834Z,89.71
2022-11-18T15:42:55.711Z,89.62
2022-11-18T15:45:27.520Z,89.55
2022-11-18T15:47:59.262Z,89.68
2022-11-18T15:50:33.536Z,89.28
2022-11-18T15:53:05.268Z,89.21
2022-11-18T15:55:37.059Z,88.98
2022-11-18T15:58:08.867Z,88.82
2022-11-18T16:00:40.757Z,89.01
2022-11-18T16:03:12.661Z,89.14
2022-11-18T16:05:44.458Z,89.40
2022-11-18T16:08:16.216Z,89.57
2022-11-18T16:11:05.286Z,89.86
2022-11-18T16:13:37.546Z,90.05
2022-11-18T16:16:18.326Z,89.87
2022-11-18T16:18:50.261Z,90.06
2022-11-18T16:21:22.154Z,89.99
2022-11-18T16:23:58.117Z,89.70
2022-11-18T16:26:31.455Z,89.80
2022-11-18T16:29:04.090Z,89.57
2022-11-18T16:31:41.763Z,89.60
2022-11-18T16:34:15.016Z,89.47
2022-11-18T16:36:48.264Z,89.42
2022-11-18T16:39:23.739Z,89.36
2022-11-18T16:42:02.160Z,89.17
2022-11-18T16:44:38.674Z,89.18
2022-11-18T16:47:15.223Z,88.53
2022-11-18T16:49:47.198Z,88.58
2022-11-18T16:52:18.952Z,88.46
2022-11-18T16:54:51.266Z,88.45
2022-11-18T16:57:24.624Z,88.75
2022-11-18T16:59:56.922Z,88.82
2022-11-18T17:02:28.802Z,88.57
2022-11-18T17:05:00.893Z,88.10
2022-11-18T17:07:38.103Z,88.04
2022-11-18T17:10:19.992Z,88.16
2022-11-18T17:12:51.810Z,88.24
2022-11-18T17:15:23.654Z,88.33
2022-11-18T17:17:55.656Z,88.51
2022-11-18T17:20:28.498Z,88.50
2022-11-18T17:23:00.239Z,88.29
2022-11-18T17:25:32.018Z,88.22
2022-11-18T17:28:03.772Z,88.24
2022-11-18T17:30:35.580Z,87.93
2022-11-18T17:33:07.438Z,87.86
2022-11-18T17:35:39.602Z,87.24
2022-11-18T17:38:13.737Z,86.90
2022-11-18T17:40:45.509Z,87.02
2022-11-18T17:43:18.084Z,87.00
2022-11-18T17:45:54.574Z,87.26
2022-11-18T17:48:27.543Z,87.86
2022-11-18T17:51:05.927Z,87.80
2022-11-18T17:53:38.993Z,87.75
2022-11-18T17:56:13.904Z,87.59
2022-11-18T17:58:46.399Z,87.23
2022-11-18T18:01:19.980Z,87.10
2022-11-18T18:03:51.909Z,87.07
2022-11-18T18:06:23.889Z,86.78
2022-11-18T18:08:58.907Z,86.89
2022-11-18T18:11:30.666Z,86.68
2022-11-18T18:14:14.560Z,86.23
2022-11-18T18:16:48.336Z,86.17
2022-11-18T18:19:21.757Z,86.65
2022-11-18T18:21:54.211Z,86.33
2022-11-18T18:24:25.997Z,86.62
2022-11-18T18:26:57.751Z,86.61
2022-11-18T18:29:29.893Z,86.88
2022-11-18T18:32:01.615Z,87.00
2022-11-18T18:34:33.344Z,86.73
2022-11-18T18:37:05.086Z,86.42
2022-11-18T18:39:37.134Z,86.29
2022-11-18T18:42:09.185Z,86.25
2022-11-18T18:44:58.171Z,86.03
2022-11-18T18:47:29.940Z,86.72
2022-11-18T18:50:01.682Z,86.46
2022-11-18T18:52:34.734Z,86.49
2022-11-18T18:55:07.195Z,86.69
2022-11-18T18:57:38.925Z,86.84
2022-11-18T19:00:13.461Z,86.83
2022-11-18T19:02:45.314Z,86.87
2022-11-18T19:05:17.422Z,86.76
2022-11-18T19:07:49.225Z,86.78
2022-11-18T19:10:21.544Z,86.28
2022-11-18T19:12:53.979Z,86.03
2022-11-18T19:15:25.969Z,86.27
2022-11-18T19:17:58.079Z,86.20
2022-11-18T19:20:37.649Z,86.16
2022-11-18T19:23:11.043Z,86.45
2022-11-18T19:25:43.938Z,86.34
2022-11-18T19:28:15.670Z,86.64
2022-11-18T19:30:47.805Z,86.31
2022-11-18T19:33:19.904Z,86.25
2022-11-18T19:35:51.739Z,86.33
2022-11-18T19:38:23.729Z,85.74
2022-11-18T19:41:01.901Z,85.09
2022-11-18T19:43:33.898Z,85.41
2022-11-18T19:46:06.625Z,85.86
2022-11-18T19:48:38.813Z,86.12
2022-11-18T19:51:13.519Z,86.03
2022-11-18T19:53:45.737Z,86.41
2022-11-18T19:56:20.441Z,86.24
2022-11-18T19:58:52.743Z,86.10
2022-11-18T20:01:27.622Z,85.75
2022-11-18T20:04:01.880Z,85.63
2022-11-18T20:06:35.311Z,85.42
2022-11-18T20:09:09.150Z,85.40
2022-11-18T20:11:41.559Z,84.89
2022-11-18T20:14:14.046Z,84.97
2022-11-18T20:16:46.748Z,84.85
2022-11-18T20:19:19.169Z,85.23
2022-11-18T20:21:52.767Z,85.71
2022-11-18T20:24:24.658Z,85.73
2022-11-18T20:26:56.455Z,85.81
2022-11-18T20:29:28.474Z,85.84
2022-11-18T20:32:00.324Z,85.89
2022-11-18T20:34:33.298Z,85.92
2022-11-18T20:37:05.382Z,85.85
2022-11-18T20:39:37.169Z,86.23
2022-11-18T20:42:26.526Z,86.33
2022-11-18T20:44:58.998Z,86.51
2022-11-18T20:47:30.815Z,86.63
2022-11-18T20:50:02.654Z,86.27
2022-11-18T20:52:35.577Z,86.16
2022-11-18T20:55:08.565Z,86.25
2022-11-18T20:57:41.066Z,86.32
2022-11-18T21:00:14.318Z,86.45
2022-11-18T21:02:46.145Z,86.46
2022-11-18T21:05:18.147Z,86.78
2022-11-18T21:07:50.627Z,87.20
2022-11-18T21:10:22.722Z,87.10
2022-11-18T21:13:11.971Z,86.62
2022-11-18T21:15:44.049Z,86.65
2022-11-18T21:18:15.909Z,86.76
2022-11-18T21:21:05.073Z,87.10
2022-11-18T21:23:36.866Z,87.44
2022-11-18T21:26:13.267Z,87.56
2022-11-18T21:28:45.315Z,87.70
2022-11-18T21:31:20.659Z,87.63
2022-11-18T21:33:56.136Z,87.91
2022-11-18T21:36:29.447Z,87.97
2022-11-18T21:39:02.743Z,88.22
2022-11-18T21:41:34.666Z,87.98
2022-11-18T21:44:08.941Z,87.93
2022-11-18T21:46:42.492Z,87.93
2022-11-18T21:49:14.267Z,88.32
2022-11-18T21:51:46.457Z,88.27
2022-11-18T21:54:18.733Z,88.27
2022-11-18T21:56:50.581Z,88.34
2022-11-18T21:59:23.741Z,88.33
2022-11-18T22:01:55.538Z,88.62
2022-11-18T22:04:45.176Z,88.70
2022-11-18T22:07:17.009Z,88.54
2022-11-18T22:09:48.791Z,88.65
2022-11-18T22:12:20.783Z,88.57
2022-11-18T22:14:52.700Z,88.54
2022-11-18T22:17:24.482Z,88.65
2022-11-18T22:19:56.239Z,88.95
2022-11-18T22:22:28.019Z,88.89
2022-11-18T22:24:59.808Z,88.74
2022-11-18T22:27:31.594Z,88.96
2022-11-18T22:30:03.328Z,88.94
2022-11-18T22:32:35.127Z,89.05
2022-11-18T22:35:08.101Z,89.08
2022-11-18T22:37:39.865Z,89.34
2022-11-18T22:40:13.745Z,89.05
2022-11-18T22:42:51.160Z,89.18
2022-11-18T22:45:23.119Z,88.93
2022-11-18T22:47:55.035Z,89.06
2022-11-18T22:50:26.778Z,89.05
2022-11-18T22:52:58.564Z,89.08
2022-11-18T22:55:31.773Z,89.29
2022-11-18T22:58:04.949Z,89.17
2022-11-18T23:00:36.764Z,89.30
2022-11-18T23:03:09.081Z,89.43
2022-11-18T23:05:40.818Z,89.25
2022-11-18T23:08:12.678Z,89.08
2022-11-18T23:10:44.541Z,89.26
2022-11-18T23:13:36.616Z,89.50
2022-11-18T23:16:09.141Z,89.46
2022-11-18T23:18:40.891Z,89.47
2022-11-18T23:21:12.887Z,89.58
2022-11-18T23:23:45.602Z,89.30
2022-11-18T23:26:17.752Z,89.42
2022-11-18T23:28:49.889Z,89.57
2022-11-18T23:31:23.789Z,89.62
2022-11-18T23:33:56.343Z,89.83
2022-11-18T23:36:29.286Z,89.76
2022-11-18T23:39:01.017Z,89.39
2022-11-18T23:41:33.067Z,89.54
2022-11-18T23:44:06.309Z,89.41
2022-11-18T23:46:38.107Z,89.51
2022-11-18T23:49:12.631Z,89.42
2022-11-18T23:51:44.728Z,89.35
2022-11-18T23:54:16.570Z,89.41
2022-11-18T23:56:48.284Z,89.73
2022-11-18T23:59:20.169Z,90.01
